الصفحة الرئيسية
METAR-TAF:

METAR-TAF

مطار :

سان خوسيه, كوستاريكا

دائرة عرض: 10-00N, خط طول: 084-13W, ارتفاع: 920 متر

مراقبة الطقس الحالي

تاريخ ووقت الإصدار 30 دقيقة قبل الساعة 04:00UTC
ريح 17 عقدة من الشرق تتزايد حتى 27 عقدة
درجة الحرارة 22°درجة مئوية
الرطوبة 57%
ضغط 1017 hPa
الرؤية 10 كم أو أكثر
الغيوم لا تقل 1500 م ولا وجود لمزنة ركامية السحاب الأسود

METAR: MROC 290400Z 10017G27KT CAVOK 22/13 A3003 NOSIG

زمن: 22:30 (04:30 UTC)

توقعات

تاريخ ووقت الإصدار 5ساعات و 30 دقيقة قبل الساعة 23:00UTC
التوقعات صالحة من29 الساعة 00 UTC إلى 29 الساعة 24 UTC
ريح 15 عقدة من الشرق تتزايد حتى 26 عقدة
الرؤية 10 كم أو أكثر
غيوم قليلة على ارتفاع 4000 قدم
مؤقت
من 29 الساعة 14 UTC إلى 29 الساعة 21 UTC
ريح 18 عقدة من الشرق/الجنوب الشرقي تتزايد حتى 30 عقدة

TAF: MROC 282300Z 2900/2924 09015G26KT 9999 FEW040 TX30/2919Z TN20/2910Z TEMPO 2914/2921 11018G30KT

أرصاد الطقس والتوقعات من أكثر من 4000 مطار (تقارير الطقس للمطار METAR والتنبؤ بالطقس بالمطارTAF).

المحطات المتاحة هي النقط الصفراء والحمراء على الخريطة.

حرك المؤشر فوق النقطة لمعرفة اسم المحطة.

ثم انقر لمعرفة أرصاد وتوقعات الطقس.

لتغيير الخارطة: اضغط على الأزرار الخضراء مع رمز الصليب الأسود للتكبير. على الزر الأخضر مع شرطة للتصغير، أو على الأسهم الخضراء للخرائط المجاورة.


METAR-TAF: